createdAt,value
2023-01-25T00:01:00.823Z,63.09
2023-01-25T00:03:27.307Z,63.31
2023-01-25T00:05:53.712Z,63.30
2023-01-25T00:08:20.090Z,63.32
2023-01-25T00:10:46.474Z,63.26
2023-01-25T00:13:12.869Z,63.38
2023-01-25T00:15:39.236Z,63.32
2023-01-25T00:18:05.675Z,63.04
2023-01-25T00:20:32.029Z,63.08
2023-01-25T00:22:58.392Z,62.96
2023-01-25T00:25:24.760Z,62.81
2023-01-25T00:27:51.130Z,62.54
2023-01-25T00:30:17.509Z,62.82
2023-01-25T00:32:43.989Z,63.30
2023-01-25T00:35:10.636Z,63.39
2023-01-25T00:37:37.142Z,62.82
2023-01-25T00:40:03.571Z,62.88
2023-01-25T00:42:29.951Z,62.52
2023-01-25T00:44:56.316Z,62.97
2023-01-25T00:47:22.694Z,63.17
2023-01-25T00:49:49.106Z,63.55
2023-01-25T00:52:15.544Z,63.53
2023-01-25T00:54:41.917Z,63.35
2023-01-25T00:57:08.293Z,63.34
2023-01-25T00:59:34.686Z,63.54
2023-01-25T01:02:01.231Z,63.54
2023-01-25T01:04:27.678Z,63.58
2023-01-25T01:06:54.055Z,63.77
2023-01-25T01:09:20.445Z,63.77
2023-01-25T01:11:46.816Z,63.76
2023-01-25T01:14:13.212Z,64.10
2023-01-25T01:16:39.642Z,64.67
2023-01-25T01:19:06.054Z,65.75
2023-01-25T01:21:32.434Z,65.25
2023-01-25T01:23:58.900Z,64.67
2023-01-25T01:26:25.321Z,64.29
2023-01-25T01:28:51.714Z,64.46
2023-01-25T01:31:18.197Z,64.02
2023-01-25T01:33:44.638Z,64.03
2023-01-25T01:36:11.011Z,63.68
2023-01-25T01:38:37.462Z,64.07
2023-01-25T01:41:03.839Z,64.33
2023-01-25T01:43:30.203Z,64.21
2023-01-25T01:45:56.615Z,64.39
2023-01-25T01:48:22.982Z,64.36
2023-01-25T01:50:49.368Z,64.11
2023-01-25T01:53:15.785Z,64.36
2023-01-25T01:55:42.162Z,64.05
2023-01-25T01:58:08.559Z,64.26
2023-01-25T02:00:34.944Z,64.13
2023-01-25T02:03:01.315Z,64.24
2023-01-25T02:05:27.684Z,64.03
2023-01-25T02:07:54.071Z,64.36
2023-01-25T02:10:20.533Z,64.17
2023-01-25T02:12:46.919Z,64.04
2023-01-25T02:15:13.326Z,63.82
2023-01-25T02:17:39.699Z,63.86
2023-01-25T02:20:06.088Z,63.90
2023-01-25T02:22:32.465Z,64.32
2023-01-25T02:24:58.848Z,63.91
2023-01-25T02:27:25.236Z,64.06
2023-01-25T02:29:51.679Z,64.04
2023-01-25T02:32:18.149Z,64.90
2023-01-25T02:34:44.652Z,64.86
2023-01-25T02:37:11.046Z,65.16
2023-01-25T02:39:37.442Z,65.11
2023-01-25T02:42:03.809Z,64.99
2023-01-25T02:44:30.701Z,64.78
2023-01-25T02:46:58.045Z,64.97
2023-01-25T02:49:24.428Z,64.55
2023-01-25T02:51:50.796Z,64.65
2023-01-25T02:54:17.157Z,65.18
2023-01-25T02:56:43.555Z,65.45
2023-01-25T02:59:09.922Z,65.26
2023-01-25T03:01:36.344Z,65.25
2023-01-25T03:04:02.754Z,65.23
2023-01-25T03:06:29.140Z,65.53
2023-01-25T03:08:55.503Z,65.60
2023-01-25T03:11:21.951Z,65.47
2023-01-25T03:13:48.315Z,65.74
2023-01-25T03:16:14.818Z,65.66
2023-01-25T03:18:41.225Z,66.03
2023-01-25T03:21:07.592Z,65.82
2023-01-25T03:23:33.994Z,65.83
2023-01-25T03:26:00.373Z,65.57
2023-01-25T03:28:26.750Z,64.83
2023-01-25T03:30:53.140Z,64.70
2023-01-25T03:33:19.519Z,64.88
2023-01-25T03:35:45.946Z,64.06
2023-01-25T03:38:12.323Z,64.05
2023-01-25T03:40:38.694Z,63.54
2023-01-25T03:43:05.087Z,63.84
2023-01-25T03:45:31.461Z,63.62
2023-01-25T03:47:57.911Z,63.31
2023-01-25T03:50:24.298Z,64.22
2023-01-25T03:52:50.682Z,64.78
2023-01-25T03:55:17.120Z,65.13
2023-01-25T03:57:43.500Z,65.24
2023-01-25T04:00:09.882Z,65.02
2023-01-25T04:02:36.375Z,63.53
2023-01-25T04:05:02.797Z,64.49
2023-01-25T04:07:29.187Z,64.80
2023-01-25T04:09:55.599Z,64.25
2023-01-25T04:12:22.150Z,64.71
2023-01-25T04:14:48.556Z,64.48
2023-01-25T04:17:14.948Z,64.55
2023-01-25T04:19:41.324Z,64.69
2023-01-25T04:22:07.677Z,64.75
2023-01-25T04:24:34.092Z,64.64
2023-01-25T04:27:00.472Z,64.40
2023-01-25T04:29:40.061Z,64.78
2023-01-25T04:32:07.336Z,64.60
2023-01-25T04:34:33.779Z,64.80
2023-01-25T04:37:00.161Z,65.06
2023-01-25T04:39:26.557Z,64.66
2023-01-25T04:41:52.974Z,64.98
2023-01-25T04:44:19.359Z,64.74
2023-01-25T04:46:45.739Z,65.21
2023-01-25T04:49:12.135Z,65.33
2023-01-25T04:51:38.494Z,65.06
2023-01-25T04:54:04.886Z,65.43
2023-01-25T04:56:31.307Z,65.68
2023-01-25T04:58:57.687Z,65.41
2023-01-25T05:01:24.125Z,65.63
2023-01-25T05:03:50.513Z,65.57
2023-01-25T05:06:16.898Z,65.39
2023-01-25T05:08:43.273Z,65.18
2023-01-25T05:11:09.687Z,64.99
2023-01-25T05:13:36.084Z,65.22
2023-01-25T05:16:02.543Z,65.03
2023-01-25T05:18:35.772Z,65.38
2023-01-25T05:21:09.109Z,65.54
2023-01-25T05:23:35.578Z,65.19
2023-01-25T05:26:01.968Z,65.57
2023-01-25T05:28:28.355Z,65.44
2023-01-25T05:30:54.764Z,65.72
2023-01-25T05:33:21.150Z,65.01
2023-01-25T05:35:47.572Z,65.60
2023-01-25T05:38:13.975Z,66.07
2023-01-25T05:40:40.364Z,66.25
2023-01-25T05:43:06.753Z,66.14
2023-01-25T05:45:33.126Z,66.30
2023-01-25T05:47:59.523Z,66.37
2023-01-25T05:50:26.151Z,67.26
2023-01-25T05:52:52.536Z,66.83
2023-01-25T05:55:19.007Z,66.91
2023-01-25T05:57:45.384Z,66.99
2023-01-25T06:00:11.755Z,66.69
2023-01-25T06:02:38.382Z,66.53
2023-01-25T06:05:04.840Z,66.31
2023-01-25T06:07:31.215Z,66.05
2023-01-25T06:09:57.607Z,65.69
2023-01-25T06:12:23.988Z,65.87
2023-01-25T06:14:51.520Z,66.18
2023-01-25T06:17:17.883Z,66.60
2023-01-25T06:19:44.261Z,67.16
2023-01-25T06:22:10.632Z,67.30
2023-01-25T06:24:37.016Z,67.74
2023-01-25T06:27:03.416Z,67.54
2023-01-25T06:29:29.882Z,67.03
2023-01-25T06:31:56.258Z,66.65
2023-01-25T06:34:22.644Z,66.20
2023-01-25T06:36:49.048Z,66.77
2023-01-25T06:39:15.458Z,67.19
2023-01-25T06:41:43.134Z,67.10
2023-01-25T06:44:09.521Z,66.93
2023-01-25T06:46:35.945Z,66.38
2023-01-25T06:49:02.424Z,65.58
2023-01-25T06:51:28.855Z,65.64
2023-01-25T06:53:55.230Z,65.19
2023-01-25T06:56:21.813Z,65.55
2023-01-25T06:58:48.282Z,65.99
2023-01-25T07:01:14.848Z,66.27
2023-01-25T07:03:41.329Z,65.66
2023-01-25T07:06:07.699Z,66.62
2023-01-25T07:08:34.065Z,67.00
2023-01-25T07:11:00.534Z,67.08
2023-01-25T07:13:26.924Z,67.50
2023-01-25T07:15:53.294Z,66.89
2023-01-25T07:18:19.708Z,66.67
2023-01-25T07:20:46.097Z,66.25
2023-01-25T07:23:12.518Z,66.39
2023-01-25T07:25:38.876Z,66.51
2023-01-25T07:28:05.271Z,66.21
2023-01-25T07:30:31.670Z,65.95
2023-01-25T07:32:58.093Z,66.74
2023-01-25T07:35:24.703Z,65.61
2023-01-25T07:37:51.086Z,64.62
2023-01-25T07:40:17.469Z,64.36
2023-01-25T07:42:43.842Z,64.68
2023-01-25T07:45:10.561Z,64.64
2023-01-25T07:47:37.951Z,64.80
2023-01-25T07:50:04.375Z,64.62
2023-01-25T07:52:30.771Z,64.11
2023-01-25T07:54:57.137Z,65.05
2023-01-25T07:57:23.525Z,65.03
2023-01-25T07:59:49.898Z,64.95
2023-01-25T08:02:16.314Z,65.31
2023-01-25T08:04:42.678Z,65.26
2023-01-25T08:07:09.157Z,65.05
2023-01-25T08:09:35.561Z,64.97
2023-01-25T08:12:01.946Z,65.81
2023-01-25T08:14:28.325Z,65.30
2023-01-25T08:16:54.700Z,65.02
2023-01-25T08:19:21.114Z,65.40
2023-01-25T08:21:47.617Z,65.00
2023-01-25T08:24:15.887Z,64.33
2023-01-25T08:26:42.967Z,63.62
2023-01-25T08:29:09.349Z,63.80
2023-01-25T08:31:35.801Z,63.17
2023-01-25T08:34:02.300Z,62.99
2023-01-25T08:36:28.747Z,63.73
2023-01-25T08:38:55.150Z,63.86
2023-01-25T08:41:22.759Z,63.52
2023-01-25T08:43:49.154Z,63.33
2023-01-25T08:46:15.559Z,62.62
2023-01-25T08:48:42.009Z,62.33
2023-01-25T08:51:08.396Z,61.55
2023-01-25T08:53:34.781Z,61.78
2023-01-25T08:56:01.170Z,61.58
2023-01-25T08:58:27.568Z,60.74
2023-01-25T09:00:53.944Z,59.64
2023-01-25T09:03:20.360Z,59.60
2023-01-25T09:05:46.760Z,58.91
2023-01-25T09:08:13.139Z,58.01
2023-01-25T09:10:39.601Z,56.54
2023-01-25T09:13:08.422Z,57.01
2023-01-25T09:15:35.136Z,57.73
2023-01-25T09:18:01.545Z,57.22
2023-01-25T09:20:28.337Z,56.64
2023-01-25T09:22:55.127Z,56.96
2023-01-25T09:25:21.529Z,56.05
2023-01-25T09:27:47.938Z,56.00
2023-01-25T09:30:18.726Z,56.49
2023-01-25T09:32:45.725Z,55.86
2023-01-25T09:35:12.144Z,55.54
2023-01-25T09:37:38.573Z,55.96
2023-01-25T09:40:05.054Z,56.51
2023-01-25T09:42:31.449Z,55.61
2023-01-25T09:44:57.832Z,55.19
2023-01-25T09:47:24.191Z,54.73
2023-01-25T09:49:50.576Z,53.20
2023-01-25T09:52:17.026Z,52.00
2023-01-25T09:54:47.090Z,51.46
2023-01-25T09:57:13.773Z,50.97
2023-01-25T09:59:40.147Z,50.60
2023-01-25T10:02:06.590Z,52.87
2023-01-25T10:04:32.988Z,51.97
2023-01-25T10:07:01.385Z,52.82
2023-01-25T10:09:28.111Z,53.09
2023-01-25T10:11:54.575Z,53.41
2023-01-25T10:14:20.968Z,53.37
2023-01-25T10:16:47.377Z,53.25
2023-01-25T10:19:13.778Z,52.40
2023-01-25T10:21:40.190Z,52.93
2023-01-25T10:24:06.653Z,52.70
2023-01-25T10:26:33.028Z,52.99
2023-01-25T10:28:59.422Z,53.12
2023-01-25T10:31:25.888Z,53.35
2023-01-25T10:33:52.314Z,53.81
2023-01-25T10:36:18.724Z,54.16
2023-01-25T10:38:45.105Z,53.75
2023-01-25T10:41:11.486Z,54.53
2023-01-25T10:43:37.863Z,55.09
2023-01-25T10:46:04.248Z,55.34
2023-01-25T10:48:30.663Z,55.78
2023-01-25T10:50:57.060Z,56.24
2023-01-25T10:53:23.456Z,55.86
2023-01-25T10:55:49.833Z,56.03
2023-01-25T10:58:16.221Z,56.64
2023-01-25T11:00:42.612Z,57.03
2023-01-25T11:03:09.026Z,57.52
2023-01-25T11:05:35.421Z,57.71
2023-01-25T11:08:01.797Z,58.58
2023-01-25T11:10:28.184Z,58.35
2023-01-25T11:12:54.544Z,58.36
2023-01-25T11:15:21.045Z,57.79
2023-01-25T11:17:48.669Z,57.96
2023-01-25T11:20:16.568Z,58.14
2023-01-25T11:22:42.944Z,58.46
2023-01-25T11:25:09.329Z,58.16
2023-01-25T11:27:35.741Z,57.75
2023-01-25T11:30:02.104Z,57.45
2023-01-25T11:32:28.543Z,57.60
2023-01-25T11:34:54.935Z,57.39
2023-01-25T11:37:21.320Z,56.85
2023-01-25T11:39:47.728Z,57.08
2023-01-25T11:42:14.118Z,56.76
2023-01-25T11:44:40.512Z,56.87
2023-01-25T11:47:06.877Z,56.31
2023-01-25T11:49:33.303Z,56.58
2023-01-25T11:52:01.578Z,56.44
2023-01-25T11:54:27.957Z,56.51
2023-01-25T11:56:54.336Z,56.80
2023-01-25T11:59:20.697Z,56.95
2023-01-25T12:01:47.142Z,56.78
2023-01-25T12:04:13.520Z,56.92
2023-01-25T12:06:40.007Z,57.05
2023-01-25T12:09:06.396Z,57.54
2023-01-25T12:11:32.769Z,57.71
2023-01-25T12:13:59.163Z,57.87
2023-01-25T12:16:25.583Z,57.70
2023-01-25T12:18:51.999Z,57.30
2023-01-25T12:21:30.581Z,57.03
2023-01-25T12:23:57.501Z,57.19
2023-01-25T12:26:23.905Z,57.13
2023-01-25T12:28:50.340Z,56.63
2023-01-25T12:31:16.858Z,57.10
2023-01-25T12:33:43.439Z,56.72
2023-01-25T12:36:09.798Z,56.57
2023-01-25T12:38:36.251Z,57.39
2023-01-25T12:41:02.634Z,56.72
2023-01-25T12:43:29.006Z,56.95
2023-01-25T12:45:55.448Z,57.11
2023-01-25T12:48:21.844Z,56.71
2023-01-25T12:50:48.311Z,57.10
2023-01-25T12:53:14.694Z,56.99
2023-01-25T12:55:41.082Z,57.41
2023-01-25T12:58:07.504Z,57.46
2023-01-25T13:00:33.909Z,56.95
2023-01-25T13:03:00.430Z,57.68
2023-01-25T13:05:26.802Z,57.87
2023-01-25T13:07:53.289Z,57.89
2023-01-25T13:10:22.000Z,57.88
2023-01-25T13:12:48.411Z,58.27
2023-01-25T13:15:14.784Z,57.97
2023-01-25T13:17:42.332Z,58.43
2023-01-25T13:20:08.962Z,58.31
2023-01-25T13:22:35.623Z,58.71
2023-01-25T13:25:02.065Z,59.04
2023-01-25T13:27:28.489Z,59.79
2023-01-25T13:29:54.868Z,59.74
2023-01-25T13:32:21.298Z,59.89
2023-01-25T13:34:47.720Z,60.20
2023-01-25T13:37:14.094Z,60.63
2023-01-25T13:39:40.488Z,60.33
2023-01-25T13:42:06.878Z,59.81
2023-01-25T13:44:33.300Z,59.36
2023-01-25T13:46:59.768Z,59.81
2023-01-25T13:49:26.149Z,59.76
2023-01-25T13:51:52.560Z,60.16
2023-01-25T13:54:18.962Z,60.56
2023-01-25T13:56:45.359Z,61.08
2023-01-25T13:59:11.765Z,60.38
2023-01-25T14:01:38.147Z,60.62
2023-01-25T14:04:04.652Z,61.29
2023-01-25T14:06:31.037Z,61.27
2023-01-25T14:08:57.464Z,60.77
2023-01-25T14:11:23.862Z,60.73
2023-01-25T14:13:50.245Z,60.97
2023-01-25T14:16:16.634Z,60.94
2023-01-25T14:18:43.008Z,61.04
2023-01-25T14:21:09.399Z,61.97
2023-01-25T14:23:35.789Z,60.95
2023-01-25T14:26:02.268Z,61.32
2023-01-25T14:28:28.638Z,61.86
2023-01-25T14:30:55.119Z,61.91
2023-01-25T14:33:21.598Z,61.80
2023-01-25T14:35:58.532Z,61.60
2023-01-25T14:38:26.546Z,61.33
2023-01-25T14:40:52.954Z,60.92
2023-01-25T14:43:19.337Z,61.48
2023-01-25T14:45:45.723Z,61.59
2023-01-25T14:48:12.107Z,61.42
2023-01-25T14:50:38.552Z,61.53
2023-01-25T14:53:04.939Z,61.12
2023-01-25T14:55:31.292Z,61.48
2023-01-25T14:57:57.701Z,61.91
2023-01-25T15:00:24.076Z,62.28
2023-01-25T15:02:50.490Z,62.21
2023-01-25T15:05:16.830Z,62.06
2023-01-25T15:07:43.281Z,62.07
2023-01-25T15:10:09.855Z,61.56
2023-01-25T15:12:36.386Z,62.46
2023-01-25T15:15:02.859Z,62.26
2023-01-25T15:17:29.291Z,62.23
2023-01-25T15:19:55.653Z,62.24
2023-01-25T15:22:22.085Z,62.48
2023-01-25T15:24:57.449Z,62.47
2023-01-25T15:27:24.799Z,62.38
2023-01-25T15:29:51.211Z,62.43
2023-01-25T15:32:17.582Z,62.17
2023-01-25T15:34:43.957Z,62.97
2023-01-25T15:37:10.366Z,62.90
2023-01-25T15:39:36.769Z,62.68
2023-01-25T15:42:03.150Z,63.05
2023-01-25T15:44:29.551Z,63.19
2023-01-25T15:46:55.920Z,62.69
2023-01-25T15:49:22.288Z,63.76
2023-01-25T15:51:48.735Z,63.31
2023-01-25T15:54:15.097Z,63.91
2023-01-25T15:56:41.499Z,64.10
2023-01-25T15:59:07.915Z,64.55
2023-01-25T16:01:34.339Z,64.99
2023-01-25T16:04:00.734Z,64.21
2023-01-25T16:06:27.142Z,64.21
2023-01-25T16:08:53.530Z,63.30
2023-01-25T16:11:19.924Z,62.90
2023-01-25T16:13:46.291Z,63.01
2023-01-25T16:16:12.803Z,63.19
2023-01-25T16:18:39.182Z,63.21
2023-01-25T16:21:05.657Z,63.76
2023-01-25T16:23:32.084Z,63.84
2023-01-25T16:25:58.534Z,63.71
2023-01-25T16:28:24.917Z,63.50
2023-01-25T16:30:51.341Z,63.62
2023-01-25T16:33:17.749Z,63.88
2023-01-25T16:35:44.152Z,64.23
2023-01-25T16:38:10.541Z,64.48
2023-01-25T16:40:36.935Z,64.43
2023-01-25T16:43:03.345Z,64.43
2023-01-25T16:45:29.733Z,64.46
2023-01-25T16:47:56.100Z,64.62
2023-01-25T16:50:23.752Z,64.54
2023-01-25T16:52:50.153Z,64.63
2023-01-25T16:55:16.547Z,64.58
2023-01-25T16:57:42.927Z,64.81
2023-01-25T17:00:09.498Z,65.07
2023-01-25T17:02:37.317Z,67.13
2023-01-25T17:05:04.998Z,65.17
2023-01-25T17:07:31.364Z,64.72
2023-01-25T17:09:57.766Z,64.13
2023-01-25T17:12:24.174Z,64.59
2023-01-25T17:14:50.545Z,64.69
2023-01-25T17:17:16.979Z,64.51
2023-01-25T17:19:43.354Z,64.72
2023-01-25T17:22:09.727Z,64.61
2023-01-25T17:24:36.132Z,65.02
2023-01-25T17:27:02.521Z,65.11
2023-01-25T17:29:28.936Z,64.99
2023-01-25T17:31:55.442Z,64.81
2023-01-25T17:34:22.015Z,64.99
2023-01-25T17:36:48.467Z,64.56
2023-01-25T17:39:14.874Z,63.95
2023-01-25T17:41:41.304Z,64.04
2023-01-25T17:44:07.701Z,64.30
2023-01-25T17:46:35.972Z,64.25
2023-01-25T17:49:02.479Z,63.12
2023-01-25T17:51:28.942Z,62.89
2023-01-25T17:53:55.383Z,63.35
2023-01-25T17:56:21.813Z,63.78
2023-01-25T17:58:49.234Z,63.21
2023-01-25T18:01:16.702Z,63.34
2023-01-25T18:03:43.106Z,62.96
2023-01-25T18:06:09.563Z,63.11
2023-01-25T18:08:35.989Z,62.85
2023-01-25T18:11:02.367Z,62.38
2023-01-25T18:13:28.730Z,62.87
2023-01-25T18:15:55.215Z,62.45
2023-01-25T18:18:21.633Z,62.74
2023-01-25T18:20:48.006Z,61.75
2023-01-25T18:23:14.471Z,61.93
2023-01-25T18:25:40.912Z,62.12
2023-01-25T18:28:07.288Z,62.52
2023-01-25T18:30:33.681Z,63.07
2023-01-25T18:33:00.102Z,62.92
2023-01-25T18:35:26.501Z,61.50
2023-01-25T18:37:52.924Z,60.31
2023-01-25T18:40:19.308Z,60.96
2023-01-25T18:42:45.686Z,60.66
2023-01-25T18:45:12.358Z,59.79
2023-01-25T18:47:38.796Z,60.69
2023-01-25T18:50:05.185Z,59.81
2023-01-25T18:52:31.569Z,60.68
2023-01-25T18:54:58.003Z,60.94
2023-01-25T18:57:24.413Z,61.46
2023-01-25T18:59:50.875Z,60.48
2023-01-25T19:02:17.318Z,60.90
2023-01-25T19:04:43.732Z,60.56
2023-01-25T19:07:10.127Z,61.12
2023-01-25T19:09:36.532Z,60.55
2023-01-25T19:12:02.977Z,60.33
2023-01-25T19:14:29.360Z,61.01
2023-01-25T19:16:55.825Z,59.81
2023-01-25T19:19:22.219Z,59.70
2023-01-25T19:21:48.610Z,60.68
2023-01-25T19:24:15.022Z,60.24
2023-01-25T19:26:41.405Z,59.93
2023-01-25T19:29:07.805Z,60.48
2023-01-25T19:31:34.221Z,61.13
2023-01-25T19:34:00.668Z,60.74
2023-01-25T19:36:27.061Z,60.59
2023-01-25T19:38:53.514Z,61.32
2023-01-25T19:41:19.904Z,61.33
2023-01-25T19:43:46.282Z,61.08
2023-01-25T19:46:12.737Z,61.72
2023-01-25T19:48:39.122Z,61.66
2023-01-25T19:51:05.549Z,61.58
2023-01-25T19:53:31.941Z,61.73
2023-01-25T19:55:58.709Z,62.41
2023-01-25T19:58:25.088Z,62.34
2023-01-25T20:00:51.501Z,62.35
2023-01-25T20:03:17.967Z,62.83
2023-01-25T20:05:44.427Z,62.87
2023-01-25T20:08:10.799Z,63.00
2023-01-25T20:10:37.192Z,62.95
2023-01-25T20:13:03.645Z,63.52
2023-01-25T20:15:30.009Z,62.83
2023-01-25T20:17:56.390Z,62.88
2023-01-25T20:20:22.785Z,63.08
2023-01-25T20:22:49.272Z,63.10
2023-01-25T20:25:15.677Z,62.99
2023-01-25T20:27:42.054Z,63.34
2023-01-25T20:30:08.429Z,62.99
2023-01-25T20:32:34.872Z,62.45
2023-01-25T20:35:01.284Z,63.00
2023-01-25T20:37:27.655Z,63.37
2023-01-25T20:39:54.036Z,62.83
2023-01-25T20:42:20.435Z,62.64
2023-01-25T20:44:46.866Z,63.29
2023-01-25T20:47:13.349Z,62.94
2023-01-25T20:49:39.710Z,63.76
2023-01-25T20:52:06.082Z,63.49
2023-01-25T20:54:32.547Z,63.18
2023-01-25T20:56:58.949Z,63.42
2023-01-25T20:59:25.316Z,63.55
2023-01-25T21:01:51.747Z,63.92
2023-01-25T21:04:18.156Z,63.56
2023-01-25T21:06:44.517Z,63.82
2023-01-25T21:09:10.890Z,64.20
2023-01-25T21:11:37.261Z,63.96
2023-01-25T21:14:03.771Z,64.00
2023-01-25T21:16:30.872Z,64.19
2023-01-25T21:18:57.296Z,64.12
2023-01-25T21:21:23.684Z,64.76
2023-01-25T21:23:50.134Z,64.72
2023-01-25T21:26:16.534Z,64.61
2023-01-25T21:28:42.943Z,64.43
2023-01-25T21:31:09.358Z,64.55
2023-01-25T21:33:35.835Z,64.59
2023-01-25T21:36:02.219Z,64.08
2023-01-25T21:38:28.616Z,64.30
2023-01-25T21:40:55.044Z,64.86
2023-01-25T21:43:21.448Z,65.43
2023-01-25T21:45:47.891Z,64.69
2023-01-25T21:48:14.306Z,64.30
2023-01-25T21:50:40.743Z,64.23
2023-01-25T21:53:07.118Z,64.35
2023-01-25T21:55:33.495Z,64.04
2023-01-25T21:57:59.932Z,63.98
2023-01-25T22:00:26.294Z,64.40
2023-01-25T22:02:52.703Z,64.43
2023-01-25T22:05:19.165Z,64.71
2023-01-25T22:07:45.528Z,64.52
2023-01-25T22:10:12.277Z,64.53
2023-01-25T22:12:38.886Z,64.24
2023-01-25T22:15:05.294Z,64.70
2023-01-25T22:17:31.691Z,64.41
2023-01-25T22:19:58.070Z,64.96
2023-01-25T22:22:24.462Z,65.15
2023-01-25T22:24:50.851Z,64.44
2023-01-25T22:27:17.265Z,64.52
2023-01-25T22:29:43.669Z,65.22
2023-01-25T22:32:10.033Z,64.89
2023-01-25T22:34:36.463Z,64.51
2023-01-25T22:37:02.864Z,64.36
2023-01-25T22:39:29.261Z,64.27
2023-01-25T22:41:55.672Z,64.05
2023-01-25T22:44:22.076Z,64.47
2023-01-25T22:46:48.470Z,64.02
2023-01-25T22:49:14.860Z,63.73
2023-01-25T22:51:41.267Z,63.82
2023-01-25T22:54:07.642Z,63.62
2023-01-25T22:56:34.014Z,63.62
2023-01-25T22:59:00.490Z,64.01
2023-01-25T23:01:26.984Z,64.54
2023-01-25T23:03:53.378Z,64.05
2023-01-25T23:06:19.787Z,63.57
2023-01-25T23:08:46.167Z,63.85
2023-01-25T23:11:12.566Z,62.48
2023-01-25T23:13:39.062Z,62.81
2023-01-25T23:16:05.554Z,63.05
2023-01-25T23:18:31.949Z,63.36
2023-01-25T23:20:58.352Z,62.40
2023-01-25T23:23:24.745Z,62.48
2023-01-25T23:25:51.112Z,62.37
2023-01-25T23:28:17.509Z,62.23
2023-01-25T23:30:43.941Z,62.93
2023-01-25T23:33:10.399Z,62.76
2023-01-25T23:35:36.794Z,62.22
2023-01-25T23:38:03.179Z,61.96
2023-01-25T23:40:29.558Z,62.54
2023-01-25T23:42:55.980Z,61.95
2023-01-25T23:45:22.352Z,62.07
2023-01-25T23:47:48.772Z,61.93
2023-01-25T23:50:15.142Z,62.39
2023-01-25T23:52:41.513Z,62.85
2023-01-25T23:55:07.906Z,63.17
2023-01-25T23:57:34.289Z,64.00
